sensor_id;sensor_type;location;lat;lon;timestamp;pressure;altitude;pressure_sealevel;temperature;humidity
14383;BME280;7275;50.328;8.720;2022-08-01T00:00:47;99622.03;;;28.37;37.36
14383;BME280;7275;50.328;8.720;2022-08-01T00:03:14;99629.69;;;28.34;37.14
14383;BME280;7275;50.328;8.720;2022-08-01T00:05:42;99621.03;;;28.30;37.44
14383;BME280;7275;50.328;8.720;2022-08-01T00:08:11;99622.22;;;28.28;37.21
14383;BME280;7275;50.328;8.720;2022-08-01T00:10:39;99628.00;;;28.25;37.79
14383;BME280;7275;50.328;8.720;2022-08-01T00:13:06;99625.63;;;28.22;37.42
14383;BME280;7275;50.328;8.720;2022-08-01T00:15:35;99625.97;;;28.19;37.76
14383;BME280;7275;50.328;8.720;2022-08-01T00:18:05;99628.38;;;28.14;37.62
14383;BME280;7275;50.328;8.720;2022-08-01T00:20:32;99621.72;;;28.08;37.79
14383;BME280;7275;50.328;8.720;2022-08-01T00:23:01;99626.66;;;28.05;37.94
14383;BME280;7275;50.328;8.720;2022-08-01T00:25:29;99623.75;;;27.98;38.16
14383;BME280;7275;50.328;8.720;2022-08-01T00:27:59;99618.66;;;27.95;37.94
14383;BME280;7275;50.328;8.720;2022-08-01T00:30:26;99613.88;;;27.89;38.38
14383;BME280;7275;50.328;8.720;2022-08-01T00:32:54;99614.41;;;27.85;38.34
14383;BME280;7275;50.328;8.720;2022-08-01T00:35:23;99616.75;;;27.80;38.94
14383;BME280;7275;50.328;8.720;2022-08-01T00:37:50;99615.41;;;27.76;38.65
14383;BME280;7275;50.328;8.720;2022-08-01T00:40:18;99602.13;;;27.73;38.86
14383;BME280;7275;50.328;8.720;2022-08-01T00:42:46;99613.34;;;27.69;39.08
14383;BME280;7275;50.328;8.720;2022-08-01T00:45:13;99610.97;;;27.66;39.12
14383;BME280;7275;50.328;8.720;2022-08-01T00:47:41;99606.88;;;27.62;39.13
14383;BME280;7275;50.328;8.720;2022-08-01T00:50:09;99606.88;;;27.62;39.03
14383;BME280;7275;50.328;8.720;2022-08-01T00:52:40;99602.63;;;27.60;39.25
14383;BME280;7275;50.328;8.720;2022-08-01T00:55:09;99610.09;;;27.58;39.55
14383;BME280;7275;50.328;8.720;2022-08-01T00:57:40;99607.75;;;27.55;39.42
14383;BME280;7275;50.328;8.720;2022-08-01T01:00:28;99607.06;;;27.53;39.63
14383;BME280;7275;50.328;8.720;2022-08-01T01:02:59;99606.38;;;27.51;39.78
14383;BME280;7275;50.328;8.720;2022-08-01T01:05:27;99602.28;;;27.47;39.98
14383;BME280;7275;50.328;8.720;2022-08-01T01:08:02;99603.47;;;27.44;39.97
14383;BME280;7275;50.328;8.720;2022-08-01T01:10:40;99607.53;;;27.40;39.84
14383;BME280;7275;50.328;8.720;2022-08-01T01:13:13;99600.75;;;27.36;40.10
14383;BME280;7275;50.328;8.720;2022-08-01T01:15:46;99602.88;;;27.33;40.06
14383;BME280;7275;50.328;8.720;2022-08-01T01:18:21;99595.25;;;27.28;40.33
14383;BME280;7275;50.328;8.720;2022-08-01T01:20:53;99598.97;;;27.27;40.21
14383;BME280;7275;50.328;8.720;2022-08-01T01:23:38;99593.91;;;27.24;40.21
14383;BME280;7275;50.328;8.720;2022-08-01T01:26:21;99605.06;;;27.21;40.17
14383;BME280;7275;50.328;8.720;2022-08-01T01:29:08;99598.97;;;27.19;40.34
14383;BME280;7275;50.328;8.720;2022-08-01T01:31:42;99605.38;;;27.18;40.43
14383;BME280;7275;50.328;8.720;2022-08-01T01:34:12;99605.38;;;27.18;40.41
14383;BME280;7275;50.328;8.720;2022-08-01T01:36:42;99605.38;;;27.18;40.82
14383;BME280;7275;50.328;8.720;2022-08-01T01:39:11;99602.66;;;27.18;40.61
14383;BME280;7275;50.328;8.720;2022-08-01T01:41:41;99614.38;;;27.19;40.98
14383;BME280;7275;50.328;8.720;2022-08-01T01:44:11;99612.84;;;27.16;40.76
14383;BME280;7275;50.328;8.720;2022-08-01T01:46:41;99618.28;;;27.16;41.07
14383;BME280;7275;50.328;8.720;2022-08-01T01:49:09;99621.16;;;27.15;41.00
14383;BME280;7275;50.328;8.720;2022-08-01T01:51:40;99626.06;;;27.11;41.12
14383;BME280;7275;50.328;8.720;2022-08-01T01:54:29;99617.25;;;27.09;40.80
14383;BME280;7275;50.328;8.720;2022-08-01T01:56:58;99623.69;;;27.08;40.84
14383;BME280;7275;50.328;8.720;2022-08-01T01:59:30;99627.41;;;27.07;41.03
14383;BME280;7275;50.328;8.720;2022-08-01T02:02:01;99623.16;;;27.05;41.17
14383;BME280;7275;50.328;8.720;2022-08-01T02:04:32;99621.31;;;27.05;41.32
14383;BME280;7275;50.328;8.720;2022-08-01T02:07:00;99623.16;;;27.05;41.15
14383;BME280;7275;50.328;8.720;2022-08-01T02:09:29;99619.59;;;27.04;41.24
14383;BME280;7275;50.328;8.720;2022-08-01T02:11:59;99626.75;;;27.05;41.21
14383;BME280;7275;50.328;8.720;2022-08-01T02:14:36;99624.88;;;27.06;41.40
14383;BME280;7275;50.328;8.720;2022-08-01T02:17:06;99630.31;;;27.06;41.32
14383;BME280;7275;50.328;8.720;2022-08-01T02:19:34;99635.72;;;27.06;41.44
14383;BME280;7275;50.328;8.720;2022-08-01T02:22:07;99633.84;;;27.06;41.25
14383;BME280;7275;50.328;8.720;2022-08-01T02:24:37;99635.38;;;27.09;41.34
14383;BME280;7275;50.328;8.720;2022-08-01T02:27:08;99632.50;;;27.10;41.30
14383;BME280;7275;50.328;8.720;2022-08-01T02:29:41;99645.09;;;27.11;41.27
14383;BME280;7275;50.328;8.720;2022-08-01T02:32:12;99636.94;;;27.11;41.15
14383;BME280;7275;50.328;8.720;2022-08-01T02:34:43;99647.78;;;27.11;41.27
14383;BME280;7275;50.328;8.720;2022-08-01T02:37:13;99648.78;;;27.10;41.46
14383;BME280;7275;50.328;8.720;2022-08-01T02:39:42;99649.81;;;27.09;41.58
14383;BME280;7275;50.328;8.720;2022-08-01T02:42:12;99656.94;;;27.10;41.29
14383;BME280;7275;50.328;8.720;2022-08-01T02:44:44;99657.28;;;27.07;41.35
14383;BME280;7275;50.328;8.720;2022-08-01T02:47:15;99652.84;;;27.06;41.33
14383;BME280;7275;50.328;8.720;2022-08-01T02:49:47;99651.31;;;27.04;41.72
14383;BME280;7275;50.328;8.720;2022-08-01T02:52:20;99660.47;;;27.03;41.57
14383;BME280;7275;50.328;8.720;2022-08-01T02:54:49;99652.50;;;27.01;41.62
14383;BME280;7275;50.328;8.720;2022-08-01T02:57:20;99666.06;;;27.01;41.41
14383;BME280;7275;50.328;8.720;2022-08-01T02:59:56;99666.91;;;27.02;41.53
14383;BME280;7275;50.328;8.720;2022-08-01T03:02:26;99668.78;;;27.01;41.65
14383;BME280;7275;50.328;8.720;2022-08-01T03:04:55;99666.56;;;26.97;41.80
14383;BME280;7275;50.328;8.720;2022-08-01T03:07:25;99668.75;;;26.93;41.78
14383;BME280;7275;50.328;8.720;2022-08-01T03:10:05;99669.56;;;26.93;41.50
14383;BME280;7275;50.328;8.720;2022-08-01T03:12:33;99672.97;;;26.96;41.80
14383;BME280;7275;50.328;8.720;2022-08-01T03:15:04;99665.88;;;26.95;42.04
14383;BME280;7275;50.328;8.720;2022-08-01T03:17:37;99669.44;;;26.95;41.67
14383;BME280;7275;50.328;8.720;2022-08-01T03:20:07;99661.81;;;26.99;41.67
14383;BME280;7275;50.328;8.720;2022-08-01T03:22:37;99657.75;;;27.03;42.12
14383;BME280;7275;50.328;8.720;2022-08-01T03:25:07;99659.31;;;27.05;41.89
14383;BME280;7275;50.328;8.720;2022-08-01T03:27:36;99662.53;;;27.09;41.84
14383;BME280;7275;50.328;8.720;2022-08-01T03:30:07;99655.56;;;27.06;41.91
14383;BME280;7275;50.328;8.720;2022-08-01T03:32:35;99655.72;;;27.05;41.68
14383;BME280;7275;50.328;8.720;2022-08-01T03:35:04;99657.94;;;27.01;42.01
14383;BME280;7275;50.328;8.720;2022-08-01T03:37:34;99665.53;;;26.98;41.98
14383;BME280;7275;50.328;8.720;2022-08-01T03:40:25;99662.28;;;26.94;42.07
14383;BME280;7275;50.328;8.720;2022-08-01T03:42:59;99656.34;;;26.90;42.08
14383;BME280;7275;50.328;8.720;2022-08-01T03:45:31;99656.50;;;26.89;42.16
14383;BME280;7275;50.328;8.720;2022-08-01T03:48:03;99656.66;;;26.87;42.38
14383;BME280;7275;50.328;8.720;2022-08-01T03:50:34;99656.81;;;26.86;42.11
14383;BME280;7275;50.328;8.720;2022-08-01T03:53:03;99663.59;;;26.82;42.21
14383;BME280;7275;50.328;8.720;2022-08-01T03:55:34;99658.34;;;26.80;42.25
14383;BME280;7275;50.328;8.720;2022-08-01T03:58:05;99659.50;;;26.78;42.29
14383;BME280;7275;50.328;8.720;2022-08-01T04:00:36;99667.78;;;26.76;42.14
14383;BME280;7275;50.328;8.720;2022-08-01T04:03:06;99671.03;;;26.80;42.28
14383;BME280;7275;50.328;8.720;2022-08-01T04:05:35;99671.72;;;26.82;42.37
14383;BME280;7275;50.328;8.720;2022-08-01T04:08:03;99673.41;;;26.83;42.42
14383;BME280;7275;50.328;8.720;2022-08-01T04:10:30;99675.31;;;26.82;42.38
14383;BME280;7275;50.328;8.720;2022-08-01T04:12:58;99674.44;;;26.82;42.49
14383;BME280;7275;50.328;8.720;2022-08-01T04:15:26;99674.44;;;26.82;42.46
14383;BME280;7275;50.328;8.720;2022-08-01T04:17:55;99681.72;;;26.81;42.55
14383;BME280;7275;50.328;8.720;2022-08-01T04:20:22;99679.34;;;26.78;42.49
14383;BME280;7275;50.328;8.720;2022-08-01T04:22:50;99680.19;;;26.79;42.36
14383;BME280;7275;50.328;8.720;2022-08-01T04:25:22;99681.91;;;26.80;42.47
14383;BME280;7275;50.328;8.720;2022-08-01T04:27:53;99680.03;;;26.80;42.64
14383;BME280;7275;50.328;8.720;2022-08-01T04:30:23;99686.00;;;26.84;42.57
14383;BME280;7275;50.328;8.720;2022-08-01T04:32:55;99690.94;;;26.88;42.72
14383;BME280;7275;50.328;8.720;2022-08-01T04:35:24;99691.47;;;26.92;42.76
14383;BME280;7275;50.328;8.720;2022-08-01T04:38:15;99690.81;;;26.98;42.55
14383;BME280;7275;50.328;8.720;2022-08-01T04:40:45;99685.75;;;27.03;42.83
14383;BME280;7275;50.328;8.720;2022-08-01T04:43:12;99689.84;;;27.07;42.46
14383;BME280;7275;50.328;8.720;2022-08-01T04:45:40;99697.66;;;27.10;42.83
14383;BME280;7275;50.328;8.720;2022-08-01T04:48:12;99694.63;;;27.13;42.39
14383;BME280;7275;50.328;8.720;2022-08-01T04:50:40;99705.31;;;27.15;42.60
14383;BME280;7275;50.328;8.720;2022-08-01T04:53:12;99698.03;;;27.15;42.53
14383;BME280;7275;50.328;8.720;2022-08-01T04:55:40;99704.31;;;27.16;42.68
14383;BME280;7275;50.328;8.720;2022-08-01T04:58:08;99694.16;;;27.18;42.60
14383;BME280;7275;50.328;8.720;2022-08-01T05:00:41;99704.16;;;27.17;42.79
14383;BME280;7275;50.328;8.720;2022-08-01T05:03:10;99700.75;;;27.15;42.86
14383;BME280;7275;50.328;8.720;2022-08-01T05:05:38;99702.78;;;27.13;42.80
14383;BME280;7275;50.328;8.720;2022-08-01T05:08:05;99709.38;;;27.11;42.97
14383;BME280;7275;50.328;8.720;2022-08-01T05:10:33;99716.34;;;27.13;42.77
14383;BME280;7275;50.328;8.720;2022-08-01T05:13:01;99705.47;;;27.13;43.00
14383;BME280;7275;50.328;8.720;2022-08-01T05:15:28;99713.16;;;27.18;43.08
14383;BME280;7275;50.328;8.720;2022-08-01T05:17:56;99702.13;;;27.19;42.78
14383;BME280;7275;50.328;8.720;2022-08-01T05:20:25;99713.66;;;27.21;42.90
14383;BME280;7275;50.328;8.720;2022-08-01T05:22:52;99712.81;;;27.21;43.15
14383;BME280;7275;50.328;8.720;2022-08-01T05:25:20;99717.25;;;27.22;42.93
14383;BME280;7275;50.328;8.720;2022-08-01T05:28:07;99723.53;;;27.22;42.82
14383;BME280;7275;50.328;8.720;2022-08-01T05:30:35;99729.47;;;27.26;42.96
14383;BME280;7275;50.328;8.720;2022-08-01T05:33:03;99728.13;;;27.30;43.13
14383;BME280;7275;50.328;8.720;2022-08-01T05:35:31;99726.66;;;27.35;43.14
14383;BME280;7275;50.328;8.720;2022-08-01T05:38:14;99721.44;;;27.42;42.75
14383;BME280;7275;50.328;8.720;2022-08-01T05:40:42;99727.06;;;27.48;42.94
14383;BME280;7275;50.328;8.720;2022-08-01T05:43:09;99730.81;;;27.55;43.02
14383;BME280;7275;50.328;8.720;2022-08-01T05:45:37;99729.13;;;27.62;42.85
14383;BME280;7275;50.328;8.720;2022-08-01T05:48:05;99742.91;;;27.69;42.93
14383;BME280;7275;50.328;8.720;2022-08-01T05:50:33;99735.28;;;27.73;42.98
14383;BME280;7275;50.328;8.720;2022-08-01T05:53:01;99736.13;;;27.73;42.50
14383;BME280;7275;50.328;8.720;2022-08-01T05:55:29;99737.69;;;27.76;42.94
14383;BME280;7275;50.328;8.720;2022-08-01T05:57:56;99738.56;;;27.84;42.97
14383;BME280;7275;50.328;8.720;2022-08-01T06:00:24;99732.28;;;27.92;42.37
14383;BME280;7275;50.328;8.720;2022-08-01T06:02:51;99744.22;;;27.99;42.52
14383;BME280;7275;50.328;8.720;2022-08-01T06:05:19;99743.88;;;28.02;42.88
14383;BME280;7275;50.328;8.720;2022-08-01T06:07:48;99734.72;;;28.03;42.84
14383;BME280;7275;50.328;8.720;2022-08-01T06:10:15;99747.28;;;28.04;42.62
14383;BME280;7275;50.328;8.720;2022-08-01T06:12:42;99750.53;;;28.07;42.59
14383;BME280;7275;50.328;8.720;2022-08-01T06:15:11;99744.75;;;28.10;42.68
14383;BME280;7275;50.328;8.720;2022-08-01T06:17:38;99750.03;;;28.12;42.74
14383;BME280;7275;50.328;8.720;2022-08-01T06:20:08;99752.22;;;28.16;42.64
14383;BME280;7275;50.328;8.720;2022-08-01T06:22:36;99760.56;;;28.23;42.54
14383;BME280;7275;50.328;8.720;2022-08-01T06:25:07;99758.22;;;28.28;42.43
14383;BME280;7275;50.328;8.720;2022-08-01T06:27:35;99757.34;;;28.35;42.82
14383;BME280;7275;50.328;8.720;2022-08-01T06:30:03;99753.97;;;28.41;42.79
14383;BME280;7275;50.328;8.720;2022-08-01T06:32:31;99752.28;;;28.48;42.77
14383;BME280;7275;50.328;8.720;2022-08-01T06:34:58;99764.19;;;28.56;42.25
14383;BME280;7275;50.328;8.720;2022-08-01T06:37:28;99758.09;;;28.62;42.25
14383;BME280;7275;50.328;8.720;2022-08-01T06:39:56;99755.19;;;28.63;42.41
14383;BME280;7275;50.328;8.720;2022-08-01T06:42:24;99751.28;;;28.66;42.35
14383;BME280;7275;50.328;8.720;2022-08-01T06:44:52;99757.22;;;28.69;42.45
14383;BME280;7275;50.328;8.720;2022-08-01T06:47:19;99756.91;;;28.72;42.43
14383;BME280;7275;50.328;8.720;2022-08-01T06:49:47;99760.31;;;28.74;42.00
14383;BME280;7275;50.328;8.720;2022-08-01T06:52:15;99757.72;;;28.73;42.03
14383;BME280;7275;50.328;8.720;2022-08-01T06:54:43;99753.66;;;28.69;42.62
14383;BME280;7275;50.328;8.720;2022-08-01T06:57:10;99757.22;;;28.61;42.78
14383;BME280;7275;50.328;8.720;2022-08-01T06:59:39;99762.19;;;28.58;43.05
14383;BME280;7275;50.328;8.720;2022-08-01T07:02:20;99770.16;;;28.59;42.76
14383;BME280;7275;50.328;8.720;2022-08-01T07:04:47;99766.06;;;28.63;43.29
14383;BME280;7275;50.328;8.720;2022-08-01T07:07:15;99759.78;;;28.71;42.97
14383;BME280;7275;50.328;8.720;2022-08-01T07:09:42;99768.63;;;28.81;43.23
14383;BME280;7275;50.328;8.720;2022-08-01T07:12:10;99761.47;;;28.88;43.29
14383;BME280;7275;50.328;8.720;2022-08-01T07:14:38;99764.00;;;28.97;42.88
14383;BME280;7275;50.328;8.720;2022-08-01T07:17:06;99762.28;;;29.04;42.59
14383;BME280;7275;50.328;8.720;2022-08-01T07:19:33;99762.94;;;29.14;43.06
14383;BME280;7275;50.328;8.720;2022-08-01T07:22:04;99759.03;;;29.25;42.54
14383;BME280;7275;50.328;8.720;2022-08-01T07:24:32;99760.72;;;29.34;42.24
14383;BME280;7275;50.328;8.720;2022-08-01T07:27:01;99766.13;;;29.42;42.30
14383;BME280;7275;50.328;8.720;2022-08-01T07:29:50;99764.03;;;29.52;41.98
14383;BME280;7275;50.328;8.720;2022-08-01T07:32:18;99757.34;;;29.63;42.34
14383;BME280;7275;50.328;8.720;2022-08-01T07:34:46;99758.69;;;29.75;41.68
14383;BME280;7275;50.328;8.720;2022-08-01T07:37:14;99758.50;;;29.84;41.99
14383;BME280;7275;50.328;8.720;2022-08-01T07:39:41;99753.66;;;29.94;41.82
14383;BME280;7275;50.328;8.720;2022-08-01T07:42:09;99746.94;;;30.05;41.46
14383;BME280;7275;50.328;8.720;2022-08-01T07:44:37;99748.59;;;30.14;41.53
14383;BME280;7275;50.328;8.720;2022-08-01T07:47:06;99749.03;;;30.26;41.28
14383;BME280;7275;50.328;8.720;2022-08-01T07:49:33;99754.47;;;30.26;41.10
14383;BME280;7275;50.328;8.720;2022-08-01T07:52:05;99753.63;;;30.25;41.05
14383;BME280;7275;50.328;8.720;2022-08-01T07:54:33;99752.22;;;30.29;40.89
14383;BME280;7275;50.328;8.720;2022-08-01T07:57:01;99756.28;;;30.41;41.20
14383;BME280;7275;50.328;8.720;2022-08-01T07:59:29;99748.50;;;30.53;40.91
14383;BME280;7275;50.328;8.720;2022-08-01T08:01:57;99752.19;;;30.60;40.80
14383;BME280;7275;50.328;8.720;2022-08-01T08:04:27;99754.47;;;30.71;40.46
14383;BME280;7275;50.328;8.720;2022-08-01T08:06:54;99751.31;;;30.82;40.32
14383;BME280;7275;50.328;8.720;2022-08-01T08:09:22;99756.38;;;30.93;40.10
14383;BME280;7275;50.328;8.720;2022-08-01T08:11:50;99755.41;;;31.01;39.90
14383;BME280;7275;50.328;8.720;2022-08-01T08:14:18;99754.88;;;31.05;39.85
14383;BME280;7275;50.328;8.720;2022-08-01T08:16:58;99758.25;;;31.07;39.55
14383;BME280;7275;50.328;8.720;2022-08-01T08:19:28;99762.88;;;31.07;39.35
14383;BME280;7275;50.328;8.720;2022-08-01T08:22:04;99760.53;;;31.04;39.51
14383;BME280;7275;50.328;8.720;2022-08-01T08:24:33;99762.75;;;31.00;39.29
14383;BME280;7275;50.328;8.720;2022-08-01T08:27:01;99769.47;;;30.98;39.13
14383;BME280;7275;50.328;8.720;2022-08-01T08:29:30;99768.81;;;30.96;39.01
14383;BME280;7275;50.328;8.720;2022-08-01T08:31:59;99768.97;;;30.94;39.23
14383;BME280;7275;50.328;8.720;2022-08-01T08:34:29;99773.78;;;30.92;39.22
14383;BME280;7275;50.328;8.720;2022-08-01T08:36:57;99765.09;;;30.89;39.05
14383;BME280;7275;50.328;8.720;2022-08-01T08:39:26;99762.72;;;30.86;38.64
14383;BME280;7275;50.328;8.720;2022-08-01T08:41:56;99763.09;;;30.83;39.10
14383;BME280;7275;50.328;8.720;2022-08-01T08:44:24;99763.09;;;30.83;39.14
14383;BME280;7275;50.328;8.720;2022-08-01T08:46:52;99765.31;;;30.87;38.94
14383;BME280;7275;50.328;8.720;2022-08-01T08:49:23;99763.34;;;30.96;39.15
14383;BME280;7275;50.328;8.720;2022-08-01T08:51:56;99771.81;;;31.01;38.67
14383;BME280;7275;50.328;8.720;2022-08-01T08:54:25;99774.19;;;31.04;38.72
14383;BME280;7275;50.328;8.720;2022-08-01T08:56:58;99770.91;;;31.08;38.74
14383;BME280;7275;50.328;8.720;2022-08-01T08:59:26;99767.03;;;31.17;38.64
14383;BME280;7275;50.328;8.720;2022-08-01T09:01:54;99768.66;;;31.26;38.56
14383;BME280;7275;50.328;8.720;2022-08-01T09:04:23;99770.06;;;31.37;38.38
14383;BME280;7275;50.328;8.720;2022-08-01T09:06:53;99760.75;;;31.46;38.51
14383;BME280;7275;50.328;8.720;2022-08-01T09:09:22;99762.34;;;31.55;37.99
14383;BME280;7275;50.328;8.720;2022-08-01T09:11:49;99767.72;;;31.63;38.10
14383;BME280;7275;50.328;8.720;2022-08-01T09:14:24;99770.63;;;31.76;37.92
14383;BME280;7275;50.328;8.720;2022-08-01T09:17:01;99766.09;;;31.98;37.64
14383;BME280;7275;50.328;8.720;2022-08-01T09:19:34;99763.84;;;32.22;37.52
14383;BME280;7275;50.328;8.720;2022-08-01T09:22:09;99764.16;;;32.49;37.15
14383;BME280;7275;50.328;8.720;2022-08-01T09:24:38;99751.50;;;32.69;36.81
14383;BME280;7275;50.328;8.720;2022-08-01T09:27:17;99758.19;;;32.87;36.60
14383;BME280;7275;50.328;8.720;2022-08-01T09:29:47;99757.53;;;33.07;36.46
14383;BME280;7275;50.328;8.720;2022-08-01T09:32:27;99753.41;;;33.24;36.25
14383;BME280;7275;50.328;8.720;2022-08-01T09:35:22;99753.72;;;33.35;36.38
14383;BME280;7275;50.328;8.720;2022-08-01T09:40:52;99753.31;;;33.72;35.85
14383;BME280;7275;50.328;8.720;2022-08-01T09:43:25;99755.91;;;33.87;35.17
14383;BME280;7275;50.328;8.720;2022-08-01T09:45:53;99750.06;;;34.03;34.78
14383;BME280;7275;50.328;8.720;2022-08-01T09:48:24;99742.50;;;34.18;34.38
14383;BME280;7275;50.328;8.720;2022-08-01T09:50:56;99750.78;;;34.25;34.23
14383;BME280;7275;50.328;8.720;2022-08-01T09:53:41;99750.34;;;34.28;33.93
14383;BME280;7275;50.328;8.720;2022-08-01T09:56:20;99751.19;;;34.28;33.47
14383;BME280;7275;50.328;8.720;2022-08-01T09:58:56;99752.44;;;34.19;33.98
14383;BME280;7275;50.328;8.720;2022-08-01T10:01:27;99751.16;;;34.15;33.87
14383;BME280;7275;50.328;8.720;2022-08-01T10:04:08;99746.28;;;34.17;33.87
14383;BME280;7275;50.328;8.720;2022-08-01T10:06:37;99746.78;;;34.27;33.76
14383;BME280;7275;50.328;8.720;2022-08-01T10:09:06;99746.34;;;34.37;33.26
14383;BME280;7275;50.328;8.720;2022-08-01T10:11:36;99749.75;;;34.45;33.35
14383;BME280;7275;50.328;8.720;2022-08-01T10:14:05;99743.66;;;34.63;33.86
14383;BME280;7275;50.328;8.720;2022-08-01T10:16:35;99739.88;;;34.77;33.23
14383;BME280;7275;50.328;8.720;2022-08-01T10:19:06;99736.06;;;34.78;33.25
14383;BME280;7275;50.328;8.720;2022-08-01T10:21:41;99741.34;;;34.73;33.26
14383;BME280;7275;50.328;8.720;2022-08-01T10:24:25;99734.16;;;34.66;32.74
14383;BME280;7275;50.328;8.720;2022-08-01T10:26:57;99742.81;;;34.56;33.09
14383;BME280;7275;50.328;8.720;2022-08-01T10:29:37;99742.38;;;34.46;33.04
14383;BME280;7275;50.328;8.720;2022-08-01T10:32:25;99740.47;;;34.40;32.56
14383;BME280;7275;50.328;8.720;2022-08-01T10:34:55;99742.13;;;34.34;32.43
14383;BME280;7275;50.328;8.720;2022-08-01T10:37:23;99736.44;;;34.29;32.60
14383;BME280;7275;50.328;8.720;2022-08-01T10:39:53;99729.66;;;34.32;32.67
14383;BME280;7275;50.328;8.720;2022-08-01T10:42:43;99732.47;;;34.51;33.13
14383;BME280;7275;50.328;8.720;2022-08-01T10:45:14;99724.22;;;34.84;32.98
14383;BME280;7275;50.328;8.720;2022-08-01T10:47:47;99717.22;;;35.27;32.60
14383;BME280;7275;50.328;8.720;2022-08-01T10:50:22;99712.66;;;35.66;31.64
14383;BME280;7275;50.328;8.720;2022-08-01T10:53:13;99717.69;;;35.82;31.09
14383;BME280;7275;50.328;8.720;2022-08-01T10:55:51;99714.69;;;35.90;31.17
14383;BME280;7275;50.328;8.720;2022-08-01T10:58:24;99707.25;;;35.97;30.43
14383;BME280;7275;50.328;8.720;2022-08-01T11:01:15;99708.50;;;36.01;30.70
14383;BME280;7275;50.328;8.720;2022-08-01T11:03:57;99706.34;;;36.03;30.54
14383;BME280;7275;50.328;8.720;2022-08-01T11:06:36;99714.00;;;36.01;29.97
14383;BME280;7275;50.328;8.720;2022-08-01T11:09:17;99714.00;;;36.01;29.72
14383;BME280;7275;50.328;8.720;2022-08-01T11:12:05;99715.72;;;35.95;30.00
14383;BME280;7275;50.328;8.720;2022-08-01T11:15:24;99718.31;;;35.84;30.04
14383;BME280;7275;50.328;8.720;2022-08-01T11:17:58;99714.53;;;35.72;29.49
14383;BME280;7275;50.328;8.720;2022-08-01T11:20:28;99716.94;;;35.55;30.08
14383;BME280;7275;50.328;8.720;2022-08-01T11:23:25;99709.63;;;35.23;30.01
14383;BME280;7275;50.328;8.720;2022-08-01T11:26:11;99718.97;;;35.02;30.25
14383;BME280;7275;50.328;8.720;2022-08-01T11:28:40;99710.69;;;34.89;30.52
14383;BME280;7275;50.328;8.720;2022-08-01T11:31:31;99705.19;;;34.83;30.64
14383;BME280;7275;50.328;8.720;2022-08-01T11:34:03;99704.56;;;34.81;30.35
14383;BME280;7275;50.328;8.720;2022-08-01T11:36:31;99705.19;;;34.83;30.68
14383;BME280;7275;50.328;8.720;2022-08-01T11:39:18;99700.31;;;34.91;30.79
14383;BME280;7275;50.328;8.720;2022-08-01T11:41:47;99699.88;;;35.14;31.03
14383;BME280;7275;50.328;8.720;2022-08-01T11:44:18;99694.94;;;35.49;30.64
14383;BME280;7275;50.328;8.720;2022-08-01T11:46:56;99689.94;;;35.83;30.85
14383;BME280;7275;50.328;8.720;2022-08-01T11:49:31;99691.72;;;36.09;30.34
14383;BME280;7275;50.328;8.720;2022-08-01T11:52:05;99693.25;;;36.36;30.03
14383;BME280;7275;50.328;8.720;2022-08-01T11:54:35;99677.03;;;36.53;29.68
14383;BME280;7275;50.328;8.720;2022-08-01T11:57:05;99684.88;;;36.74;29.14
14383;BME280;7275;50.328;8.720;2022-08-01T11:59:37;99679.72;;;36.84;28.95
14383;BME280;7275;50.328;8.720;2022-08-01T12:02:28;99674.59;;;36.88;28.75
14383;BME280;7275;50.328;8.720;2022-08-01T12:04:58;99672.13;;;36.79;28.36
14383;BME280;7275;50.328;8.720;2022-08-01T12:07:28;99676.28;;;36.64;28.49
14383;BME280;7275;50.328;8.720;2022-08-01T12:09:59;99683.03;;;36.43;28.73
14383;BME280;7275;50.328;8.720;2022-08-01T12:12:29;99674.03;;;36.23;28.78
14383;BME280;7275;50.328;8.720;2022-08-01T12:14:57;99680.28;;;36.05;28.73
14383;BME280;7275;50.328;8.720;2022-08-01T12:17:31;99677.41;;;35.87;28.84
14383;BME280;7275;50.328;8.720;2022-08-01T12:20:00;99676.41;;;35.82;28.98
14383;BME280;7275;50.328;8.720;2022-08-01T12:22:28;99678.47;;;35.86;29.00
14383;BME280;7275;50.328;8.720;2022-08-01T12:24:55;99680.78;;;35.89;29.15
14383;BME280;7275;50.328;8.720;2022-08-01T12:27:24;99671.44;;;35.97;28.50
14383;BME280;7275;50.328;8.720;2022-08-01T12:29:52;99666.88;;;36.16;28.75
14383;BME280;7275;50.328;8.720;2022-08-01T12:32:23;99665.88;;;36.41;28.61
14383;BME280;7275;50.328;8.720;2022-08-01T12:35:04;99665.13;;;36.77;28.53
14383;BME280;7275;50.328;8.720;2022-08-01T12:37:32;99668.59;;;37.15;28.24
14383;BME280;7275;50.328;8.720;2022-08-01T12:40:08;99668.53;;;37.58;28.04
14383;BME280;7275;50.328;8.720;2022-08-01T12:42:37;99665.72;;;37.94;27.59
14383;BME280;7275;50.328;8.720;2022-08-01T12:45:07;99664.09;;;38.16;26.80
14383;BME280;7275;50.328;8.720;2022-08-01T12:47:36;99665.38;;;38.32;26.46
14383;BME280;7275;50.328;8.720;2022-08-01T12:50:08;99665.75;;;38.47;26.80
14383;BME280;7275;50.328;8.720;2022-08-01T12:52:38;99663.03;;;38.59;25.93
14383;BME280;7275;50.328;8.720;2022-08-01T12:55:10;99660.72;;;38.56;25.74
14383;BME280;7275;50.328;8.720;2022-08-01T12:57:39;99669.38;;;38.48;25.55
14383;BME280;7275;50.328;8.720;2022-08-01T13:00:10;99667.81;;;38.40;25.44
14383;BME280;7275;50.328;8.720;2022-08-01T13:02:38;99668.63;;;38.29;25.25
14383;BME280;7275;50.328;8.720;2022-08-01T13:05:08;99659.69;;;38.15;25.25
14383;BME280;7275;50.328;8.720;2022-08-01T13:07:42;99663.69;;;38.01;25.14
14383;BME280;7275;50.328;8.720;2022-08-01T13:10:12;99658.13;;;37.90;24.96
14383;BME280;7275;50.328;8.720;2022-08-01T13:12:49;99664.66;;;37.77;25.60
14383;BME280;7275;50.328;8.720;2022-08-01T13:15:23;99665.06;;;37.62;25.21
14383;BME280;7275;50.328;8.720;2022-08-01T13:17:53;99662.94;;;37.46;25.60
14383;BME280;7275;50.328;8.720;2022-08-01T13:20:24;99664.97;;;37.33;25.41
14383;BME280;7275;50.328;8.720;2022-08-01T13:22:51;99656.03;;;37.19;25.18
14383;BME280;7275;50.328;8.720;2022-08-01T13:25:19;99666.97;;;37.08;25.15
14383;BME280;7275;50.328;8.720;2022-08-01T13:28:16;99661.75;;;37.00;25.15
14383;BME280;7275;50.328;8.720;2022-08-01T13:30:58;99659.53;;;37.08;25.56
14383;BME280;7275;50.328;8.720;2022-08-01T13:33:28;99656.84;;;37.20;25.29
14383;BME280;7275;50.328;8.720;2022-08-01T13:36:08;99664.13;;;37.32;25.24